Time;durP1;ratioP1;P1;durP2;ratioP2;P2;SDS_P1;SDS_P2;PMS_P1;PMS_P2;Temp;Humidity;BMP_temperature;BMP_pressure;BME280_temperature;BME280_humidity;BME280_pressure;Samples;Min_cycle;Max_cycle;Signal;HPM_P1;HPM_P2
2023/08/17 00:00:55;;;;;;;;;;;21.10;99.90;;;;;;7337783;19;109130;-67
2023/08/17 00:03:22;;;;;;;;;;;21.10;99.90;;;;;;7335197;19;108921;-67
2023/08/17 00:05:49;;;;;;;;;;;21.10;99.90;;;;;;7331643;19;109373;-67
2023/08/17 00:08:17;;;;;;;;;;;21.10;99.90;;;;;;7335804;19;109245;-68
2023/08/17 00:10:44;;;;;;;;;;;21.10;99.90;;;;;;7338158;19;108530;-68
2023/08/17 00:13:11;;;;;;;;;;;21.20;99.90;;;;;;7333550;19;108867;-68
2023/08/17 00:15:38;;;;;;;;;;;21.20;99.90;;;;;;7340631;19;109784;-68
2023/08/17 00:18:06;;;;;;;;;;;21.30;99.90;;;;;;7335806;19;108600;-67
2023/08/17 00:20:33;;;;;;;;;;;21.30;99.90;;;;;;7335602;19;110105;-68
2023/08/17 00:23:00;;;;;;;;;;;21.30;99.90;;;;;;7336625;19;108885;-68
2023/08/17 00:25:27;;;;;;;;;;;21.30;99.90;;;;;;7333730;19;108471;-68
2023/08/17 00:27:54;;;;;;;;;;;21.30;99.90;;;;;;7334712;19;109089;-68
2023/08/17 00:30:21;;;;;;;;;;;21.30;99.90;;;;;;7334683;19;108418;-68
2023/08/17 00:32:48;;;;;;;;;;;21.30;99.90;;;;;;7336349;19;108683;-68
2023/08/17 00:35:16;;;;;;;;;;;21.20;99.90;;;;;;7333251;19;110138;-68
2023/08/17 00:37:43;;;;;;;;;;;21.20;99.90;;;;;;7337524;19;110032;-67
2023/08/17 00:40:10;;;;;;;;;;;21.10;99.90;;;;;;7335798;19;109130;-68
2023/08/17 00:42:37;;;;;;;;;;;21.10;99.90;;;;;;7332119;19;108558;-68
2023/08/17 00:45:04;;;;;;;;;;;21.00;99.90;;;;;;7332774;19;109009;-68
2023/08/17 00:47:31;;;;;;;;;;;20.90;99.90;;;;;;7331669;19;110011;-68
2023/08/17 00:49:59;;;;;;;;;;;20.80;99.90;;;;;;7337483;19;108673;-68
2023/08/17 00:52:26;;;;;;;;;;;20.80;99.90;;;;;;7334363;19;108614;-68
2023/08/17 00:54:54;;;;;;;;;;;20.70;99.90;;;;;;7336292;19;109544;-68
2023/08/17 00:57:21;;;;;;;;;;;20.70;99.90;;;;;;7338178;19;108992;-70
2023/08/17 00:59:48;;;;;;;;;;;20.60;99.90;;;;;;7333547;19;110287;-68
2023/08/17 01:02:31;;;;;;;;;;;20.60;99.90;;;;;;7336375;19;108564;-68
2023/08/17 01:04:58;;;;;;;;;;;20.60;99.90;;;;;;7333064;19;109651;-67
2023/08/17 01:07:25;;;;;;;;;;;20.60;99.90;;;;;;7333413;19;109257;-68
2023/08/17 01:09:53;;;;;;;;;;;20.60;99.90;;;;;;7333454;19;108996;-68
2023/08/17 01:12:24;;;;;;;;;;;20.60;99.90;;;;;;7330393;19;108342;-68
2023/08/17 01:14:59;;;;;;;;;;;20.60;99.90;;;;;;7335089;19;110571;-68
2023/08/17 01:17:33;;;;;;;;;;;20.50;99.90;;;;;;7333836;19;109677;-68
2023/08/17 01:20:03;;;;;;;;;;;20.50;99.90;;;;;;7341378;19;108606;-68
2023/08/17 01:22:33;;;;;;;;;;;20.40;99.90;;;;;;7332926;19;109277;-68
2023/08/17 01:25:00;;;;;;;;;;;20.40;99.90;;;;;;7333893;19;108628;-68
2023/08/17 01:27:34;;;;;;;;;;;20.30;99.90;;;;;;7333890;19;110968;-68
2023/08/17 01:30:01;;;;;;;;;;;20.20;99.90;;;;;;7334148;19;108587;-68
2023/08/17 01:32:36;;;;;;;;;;;20.10;99.90;;;;;;7334972;19;111560;-68
2023/08/17 01:35:06;;;;;;;;;;;20.10;99.90;;;;;;7329804;19;110644;-68
2023/08/17 01:37:34;;;;;;;;;;;20.00;99.90;;;;;;7332396;19;109446;-68
2023/08/17 01:40:02;;;;;;;;;;;20.00;99.90;;;;;;7333490;19;108379;-68
2023/08/17 01:42:29;;;;;;;;;;;19.90;99.90;;;;;;7341490;19;109696;-68
2023/08/17 01:44:56;;;;;;;;;;;19.80;99.90;;;;;;7334559;19;108904;-68
2023/08/17 01:47:24;;;;;;;;;;;19.80;99.90;;;;;;7330036;19;109481;-68
2023/08/17 01:49:52;;;;;;;;;;;19.70;99.90;;;;;;7334941;19;109470;-67
2023/08/17 01:52:20;;;;;;;;;;;19.70;99.90;;;;;;7334013;19;108532;-68
2023/08/17 01:54:47;;;;;;;;;;;19.70;99.90;;;;;;7332847;19;108895;-68
2023/08/17 01:57:14;;;;;;;;;;;19.60;99.90;;;;;;7333252;19;109224;-68
2023/08/17 01:59:41;;;;;;;;;;;19.60;99.90;;;;;;7335350;19;108645;-68
2023/08/17 02:02:08;;;;;;;;;;;19.60;99.90;;;;;;7332199;19;111360;-68
2023/08/17 02:04:35;;;;;;;;;;;19.60;99.90;;;;;;7339311;19;109292;-68
2023/08/17 02:07:03;;;;;;;;;;;19.50;99.90;;;;;;7332367;19;109097;-68
2023/08/17 02:09:30;;;;;;;;;;;19.50;99.90;;;;;;7334421;19;108687;-68
2023/08/17 02:11:57;;;;;;;;;;;19.50;99.90;;;;;;7335810;19;108732;-68
2023/08/17 02:14:24;;;;;;;;;;;19.60;99.90;;;;;;7340737;19;110299;-68
2023/08/17 02:16:52;;;;;;;;;;;19.50;99.90;;;;;;7339177;19;109118;-68
2023/08/17 02:19:19;;;;;;;;;;;19.50;99.90;;;;;;7338737;19;108880;-68
2023/08/17 02:21:47;;;;;;;;;;;19.50;99.90;;;;;;7338395;19;110304;-68
2023/08/17 02:24:14;;;;;;;;;;;19.40;99.90;;;;;;7337499;19;108631;-68
2023/08/17 02:26:41;;;;;;;;;;;19.30;99.90;;;;;;7345026;19;108292;-67
2023/08/17 02:29:09;;;;;;;;;;;19.30;99.90;;;;;;7337786;19;108557;-69
2023/08/17 02:31:36;;;;;;;;;;;19.30;99.90;;;;;;7337275;19;111418;-67
2023/08/17 02:34:05;;;;;;;;;;;19.30;99.90;;;;;;7337131;19;109761;-67
2023/08/17 02:36:32;;;;;;;;;;;19.30;99.90;;;;;;7337410;19;109133;-68
2023/08/17 02:39:03;;;;;;;;;;;19.20;99.90;;;;;;7339602;19;109042;-68
2023/08/17 02:41:31;;;;;;;;;;;19.30;99.90;;;;;;7339669;19;109519;-68
2023/08/17 02:43:59;;;;;;;;;;;19.20;99.90;;;;;;7338281;19;108785;-68
2023/08/17 02:46:26;;;;;;;;;;;19.20;99.90;;;;;;7343984;19;109381;-67
2023/08/17 02:48:53;;;;;;;;;;;19.30;99.90;;;;;;7336706;19;109580;-68
2023/08/17 02:51:20;;;;;;;;;;;19.30;99.90;;;;;;7339128;19;109189;-68
2023/08/17 02:53:47;;;;;;;;;;;19.30;99.90;;;;;;7338157;19;109698;-68
2023/08/17 02:56:14;;;;;;;;;;;19.20;99.90;;;;;;7337134;19;109140;-68
2023/08/17 02:58:42;;;;;;;;;;;19.20;99.90;;;;;;7340915;19;109729;-68
2023/08/17 03:01:09;;;;;;;;;;;19.20;99.90;;;;;;7335577;19;109578;-68
2023/08/17 03:03:36;;;;;;;;;;;19.20;99.90;;;;;;7336262;19;109277;-67
2023/08/17 03:06:04;;;;;;;;;;;19.20;99.90;;;;;;7336828;19;109207;-68
2023/08/17 03:08:31;;;;;;;;;;;19.20;99.90;;;;;;7341408;19;109402;-67
2023/08/17 03:10:58;;;;;;;;;;;19.20;99.90;;;;;;7336509;19;109149;-67
2023/08/17 03:13:25;;;;;;;;;;;19.20;99.90;;;;;;7335725;19;109401;-68
2023/08/17 03:15:54;;;;;;;;;;;19.20;99.90;;;;;;7340239;19;109991;-67
2023/08/17 03:18:21;;;;;;;;;;;19.20;99.90;;;;;;7335396;19;108760;-67
2023/08/17 03:20:48;;;;;;;;;;;19.20;99.90;;;;;;7331271;19;109785;-69
2023/08/17 03:23:15;;;;;;;;;;;19.20;99.90;;;;;;7331782;19;108650;-68
2023/08/17 03:25:42;;;;;;;;;;;19.10;99.90;;;;;;7339601;19;108542;-67
2023/08/17 03:28:09;;;;;;;;;;;19.20;99.90;;;;;;7331030;19;110166;-68
2023/08/17 03:30:36;;;;;;;;;;;19.20;99.90;;;;;;7340585;19;109775;-69
2023/08/17 03:33:04;;;;;;;;;;;19.20;99.90;;;;;;7335255;19;112675;-67
2023/08/17 03:35:31;;;;;;;;;;;19.20;99.90;;;;;;7332619;19;109706;-67
2023/08/17 03:37:58;;;;;;;;;;;19.20;99.90;;;;;;7335488;19;111440;-67
2023/08/17 03:40:25;;;;;;;;;;;19.20;99.90;;;;;;7337443;19;109086;-68
2023/08/17 03:42:52;;;;;;;;;;;19.20;99.90;;;;;;7337284;19;108663;-67
2023/08/17 03:45:19;;;;;;;;;;;19.20;99.90;;;;;;7332288;19;109403;-68
2023/08/17 03:47:46;;;;;;;;;;;19.20;99.90;;;;;;7337085;19;109484;-68
2023/08/17 03:50:13;;;;;;;;;;;19.20;99.90;;;;;;7335115;19;109158;-70
2023/08/17 03:52:40;;;;;;;;;;;19.20;99.90;;;;;;7344374;19;109304;-68
2023/08/17 03:55:08;;;;;;;;;;;19.20;99.90;;;;;;7331548;19;109060;-67
2023/08/17 03:57:35;;;;;;;;;;;19.20;99.90;;;;;;7339137;19;108599;-69
2023/08/17 04:00:06;;;;;;;;;;;19.20;99.90;;;;;;7332962;19;110146;-70
2023/08/17 04:02:33;;;;;;;;;;;19.20;99.90;;;;;;7337941;19;112129;-68
2023/08/17 04:05:00;;;;;;;;;;;19.20;99.90;;;;;;7336856;19;108883;-67
2023/08/17 04:07:27;;;;;;;;;;;19.20;99.90;;;;;;7338272;19;109335;-68
2023/08/17 04:09:55;;;;;;;;;;;19.20;99.90;;;;;;7336272;19;109791;-68
2023/08/17 04:12:22;;;;;;;;;;;19.20;99.90;;;;;;7337560;19;108657;-68
2023/08/17 04:14:49;;;;;;;;;;;19.10;99.90;;;;;;7339037;19;111010;-68
2023/08/17 04:17:16;;;;;;;;;;;19.20;99.90;;;;;;7337611;19;109269;-67
2023/08/17 04:19:44;;;;;;;;;;;19.20;99.90;;;;;;7335552;19;110140;-68
2023/08/17 04:22:11;;;;;;;;;;;19.20;99.90;;;;;;7337844;19;108507;-67
2023/08/17 04:24:38;;;;;;;;;;;19.20;99.90;;;;;;7336801;19;112071;-68
2023/08/17 04:27:05;;;;;;;;;;;19.10;99.90;;;;;;7336770;19;109418;-79
2023/08/17 04:29:32;;;;;;;;;;;19.20;99.90;;;;;;7335453;19;110537;-69
2023/08/17 04:31:59;;;;;;;;;;;19.20;99.90;;;;;;7337574;19;108531;-77
2023/08/17 04:34:26;;;;;;;;;;;19.20;99.90;;;;;;7335939;19;109536;-76
2023/08/17 04:36:53;;;;;;;;;;;19.20;99.90;;;;;;7341480;19;108779;-70
2023/08/17 04:39:21;;;;;;;;;;;19.20;99.90;;;;;;7333238;19;110289;-77
2023/08/17 04:41:48;;;;;;;;;;;19.20;99.90;;;;;;7338021;19;110745;-76
2023/08/17 04:44:15;;;;;;;;;;;19.20;99.90;;;;;;7334440;19;108494;-77
2023/08/17 04:46:42;;;;;;;;;;;19.20;99.90;;;;;;7336309;19;109089;-71
2023/08/17 04:49:09;;;;;;;;;;;19.10;99.90;;;;;;7337169;19;108416;-73
2023/08/17 04:51:37;;;;;;;;;;;19.20;99.90;;;;;;7335725;19;109375;-76
2023/08/17 04:54:04;;;;;;;;;;;19.10;99.90;;;;;;7338792;19;109185;-73
2023/08/17 04:56:31;;;;;;;;;;;19.10;99.90;;;;;;7340708;19;109151;-76
2023/08/17 04:58:58;;;;;;;;;;;19.20;99.90;;;;;;7337378;19;108782;-75
2023/08/17 05:01:25;;;;;;;;;;;19.20;99.90;;;;;;7335110;19;109467;-75
2023/08/17 05:03:52;;;;;;;;;;;19.20;99.90;;;;;;7332925;19;108905;-76
2023/08/17 05:06:19;;;;;;;;;;;19.10;99.90;;;;;;7332430;19;110235;-74
2023/08/17 05:08:46;;;;;;;;;;;19.10;99.90;;;;;;7336772;19;108533;-76
2023/08/17 05:11:13;;;;;;;;;;;19.10;99.90;;;;;;7332934;19;108674;-76
2023/08/17 05:13:41;;;;;;;;;;;19.10;99.90;;;;;;7337017;19;110306;-72
2023/08/17 05:16:08;;;;;;;;;;;19.10;99.90;;;;;;7335492;19;109460;-70
2023/08/17 05:18:35;;;;;;;;;;;19.10;99.90;;;;;;7340834;19;110720;-68
2023/08/17 05:21:02;;;;;;;;;;;19.00;99.90;;;;;;7333903;19;109501;-72
2023/08/17 05:23:29;;;;;;;;;;;18.90;99.90;;;;;;7337691;19;108981;-73
2023/08/17 05:25:56;;;;;;;;;;;19.00;99.90;;;;;;7332756;19;110373;-71
2023/08/17 05:28:24;;;;;;;;;;;19.00;99.90;;;;;;7335128;19;108710;-69
2023/08/17 05:30:53;;;;;;;;;;;19.00;99.90;;;;;;7331745;19;109124;-68
2023/08/17 05:33:20;;;;;;;;;;;19.00;99.90;;;;;;7333000;19;109904;-70
2023/08/17 05:35:53;;;;;;;;;;;19.10;99.90;;;;;;7337929;19;108850;-68
2023/08/17 05:38:20;;;;;;;;;;;19.00;99.90;;;;;;7334046;19;109917;-68
2023/08/17 05:40:47;;;;;;;;;;;19.10;99.90;;;;;;7339515;19;110141;-68
2023/08/17 05:43:14;;;;;;;;;;;19.10;99.90;;;;;;7335309;19;108963;-70
2023/08/17 05:45:41;;;;;;;;;;;19.00;99.90;;;;;;7331148;19;109828;-75
2023/08/17 05:48:08;;;;;;;;;;;19.10;99.90;;;;;;7332238;19;108400;-70
2023/08/17 05:50:36;;;;;;;;;;;19.10;99.90;;;;;;7331453;19;108741;-67
2023/08/17 05:53:03;;;;;;;;;;;19.00;99.90;;;;;;7334097;19;110255;-68
2023/08/17 05:55:30;;;;;;;;;;;19.00;99.90;;;;;;7335771;19;108950;-66
2023/08/17 05:57:57;;;;;;;;;;;19.00;99.90;;;;;;7331462;19;108354;-71
2023/08/17 06:00:24;;;;;;;;;;;19.00;99.90;;;;;;7332798;19;109079;-68
2023/08/17 06:02:51;;;;;;;;;;;19.00;99.90;;;;;;7339341;19;110283;-68
2023/08/17 06:05:18;;;;;;;;;;;19.00;99.90;;;;;;7334266;19;109321;-70
2023/08/17 06:07:45;;;;;;;;;;;19.00;99.90;;;;;;7335558;19;108662;-69
2023/08/17 06:10:13;;;;;;;;;;;19.10;99.90;;;;;;7333710;19;111623;-73
2023/08/17 06:12:40;;;;;;;;;;;19.00;99.90;;;;;;7333116;19;109131;-68
2023/08/17 06:15:07;;;;;;;;;;;19.00;99.90;;;;;;7332690;19;109203;-71
2023/08/17 06:17:34;;;;;;;;;;;19.00;99.90;;;;;;7334031;19;109533;-68
2023/08/17 06:20:03;;;;;;;;;;;19.00;99.90;;;;;;7333675;19;110329;-68
2023/08/17 06:22:30;;;;;;;;;;;19.00;99.90;;;;;;7333995;19;108354;-68
2023/08/17 06:24:57;;;;;;;;;;;19.00;99.90;;;;;;7338819;19;109822;-68
2023/08/17 06:27:25;;;;;;;;;;;19.00;99.90;;;;;;7328571;19;109653;-68
2023/08/17 06:29:52;;;;;;;;;;;19.10;99.90;;;;;;7333578;19;108745;-68
2023/08/17 06:32:20;;;;;;;;;;;19.10;99.90;;;;;;7331896;19;109186;-67
2023/08/17 06:35:08;;;;;;;;;;;19.20;99.90;;;;;;7336572;19;109235;-89
2023/08/17 06:37:35;;;;;;;;;;;19.10;99.90;;;;;;7335370;19;109165;-89
2023/08/17 06:40:06;;;;;;;;;;;19.10;99.90;;;;;;7334942;19;108775;-89
2023/08/17 06:42:33;;;;;;;;;;;19.10;99.90;;;;;;7339132;19;110130;-90
2023/08/17 06:45:00;;;;;;;;;;;19.10;99.90;;;;;;7339913;19;109470;-88
2023/08/17 06:47:27;;;;;;;;;;;19.10;99.90;;;;;;7339776;19;113408;-89
2023/08/17 06:49:57;;;;;;;;;;;19.10;99.90;;;;;;7336334;19;109151;-89
2023/08/17 06:52:24;;;;;;;;;;;19.20;99.90;;;;;;7335395;19;110249;-90
2023/08/17 06:54:51;;;;;;;;;;;19.20;99.90;;;;;;7336515;19;108516;-89
2023/08/17 06:57:18;;;;;;;;;;;19.20;99.90;;;;;;7340473;19;109125;-90
2023/08/17 06:59:46;;;;;;;;;;;19.30;99.90;;;;;;7343183;19;113395;-90
2023/08/17 07:02:13;;;;;;;;;;;19.30;99.90;;;;;;7342949;19;108748;-90
2023/08/17 07:04:40;;;;;;;;;;;19.30;99.90;;;;;;7343978;19;109102;-89
2023/08/17 07:07:07;;;;;;;;;;;19.30;99.90;;;;;;7349610;19;109887;-89
2023/08/17 07:09:34;;;;;;;;;;;19.30;99.90;;;;;;7343691;19;112117;-87
2023/08/17 07:12:02;;;;;;;;;;;19.30;99.90;;;;;;7337557;19;113838;-67
2023/08/17 07:14:29;;;;;;;;;;;19.30;99.90;;;;;;7338954;19;109035;-67
2023/08/17 07:16:57;;;;;;;;;;;19.30;99.90;;;;;;7339809;19;109890;-68
2023/08/17 07:19:24;;;;;;;;;;;19.30;99.90;;;;;;7334944;19;111025;-68
2023/08/17 07:22:11;;;;;;;;;;;19.30;99.90;;;;;;7335932;19;110970;-66
2023/08/17 07:24:38;;;;;;;;;;;19.50;99.90;;;;;;7333982;19;111403;-67
2023/08/17 07:27:06;;;;;;;;;;;19.50;99.90;;;;;;7334710;19;109130;-67
2023/08/17 07:29:34;;;;;;;;;;;19.60;99.90;;;;;;7337191;19;109165;-65
2023/08/17 07:32:01;;;;;;;;;;;19.60;99.90;;;;;;7335071;19;109147;-67
2023/08/17 07:34:31;;;;;;;;;;;19.60;99.90;;;;;;7337644;19;108948;-67
2023/08/17 07:36:58;;;;;;;;;;;19.70;99.90;;;;;;7336927;19;109309;-65
2023/08/17 07:39:25;;;;;;;;;;;19.80;99.90;;;;;;7336588;19;112444;-66
2023/08/17 07:41:52;;;;;;;;;;;19.90;99.90;;;;;;7335549;19;108883;-67
2023/08/17 07:44:19;;;;;;;;;;;19.90;99.90;;;;;;7332355;19;109380;-67
2023/08/17 07:46:46;;;;;;;;;;;20.00;99.90;;;;;;7336516;19;109788;-67
2023/08/17 07:49:14;;;;;;;;;;;20.00;99.90;;;;;;7334377;19;109436;-67
2023/08/17 07:51:56;;;;;;;;;;;20.00;99.90;;;;;;7341815;19;108806;-66
2023/08/17 07:54:23;;;;;;;;;;;20.00;99.90;;;;;;7337502;19;109119;-67
2023/08/17 07:56:50;;;;;;;;;;;20.10;99.90;;;;;;7337013;19;108891;-67
2023/08/17 07:59:17;;;;;;;;;;;20.10;99.90;;;;;;7336147;19;109059;-67
2023/08/17 08:01:45;;;;;;;;;;;20.20;99.90;;;;;;7338227;19;109663;-67
2023/08/17 08:04:12;;;;;;;;;;;20.30;99.90;;;;;;7338653;19;109254;-67
2023/08/17 08:06:39;;;;;;;;;;;20.30;99.90;;;;;;7335957;19;109281;-65
2023/08/17 08:09:06;;;;;;;;;;;20.30;99.90;;;;;;7335674;19;108976;-65
2023/08/17 08:11:34;;;;;;;;;;;20.40;99.90;;;;;;7335506;19;109473;-65
2023/08/17 08:14:01;;;;;;;;;;;20.50;99.90;;;;;;7341786;19;108809;-65
2023/08/17 08:16:31;;;;;;;;;;;20.60;99.90;;;;;;7333404;19;110627;-65
2023/08/17 08:18:58;;;;;;;;;;;20.70;99.90;;;;;;7335881;19;111096;-65
2023/08/17 08:21:27;;;;;;;;;;;20.80;99.90;;;;;;7334557;19;109214;-65
2023/08/17 08:23:55;;;;;;;;;;;20.80;99.90;;;;;;7334194;19;108652;-66
2023/08/17 08:26:22;;;;;;;;;;;20.80;99.90;;;;;;7333275;19;109490;-65
2023/08/17 08:28:49;;;;;;;;;;;20.70;99.90;;;;;;7336226;19;110392;-65
2023/08/17 08:31:16;;;;;;;;;;;20.80;99.90;;;;;;7335869;19;109302;-65
2023/08/17 08:33:44;;;;;;;;;;;20.80;99.90;;;;;;7336101;19;109468;-65
2023/08/17 08:36:11;;;;;;;;;;;20.90;99.90;;;;;;7342944;19;109141;-65
2023/08/17 08:38:38;;;;;;;;;;;21.00;99.90;;;;;;7333320;19;112031;-65
2023/08/17 08:41:08;;;;;;;;;;;21.00;99.90;;;;;;7334740;19;109627;-66
2023/08/17 08:43:35;;;;;;;;;;;21.10;99.90;;;;;;7334634;19;109051;-65
2023/08/17 08:46:03;;;;;;;;;;;21.20;99.90;;;;;;7336549;19;109736;-66
2023/08/17 08:48:31;;;;;;;;;;;21.20;99.90;;;;;;7336068;19;108723;-66
2023/08/17 08:50:59;;;;;;;;;;;21.20;99.90;;;;;;7333796;19;109617;-66
2023/08/17 08:53:43;;;;;;;;;;;21.10;99.90;;;;;;7335249;19;110178;-65
2023/08/17 08:56:14;;;;;;;;;;;21.10;99.90;;;;;;7335195;19;109032;-65
2023/08/17 08:58:41;;;;;;;;;;;21.20;99.90;;;;;;7340736;19;109373;-65
2023/08/17 09:01:10;;;;;;;;;;;21.30;99.90;;;;;;7333806;19;109232;-66
2023/08/17 09:03:38;;;;;;;;;;;21.30;99.90;;;;;;7333390;19;108792;-66
2023/08/17 09:06:05;;;;;;;;;;;21.20;99.90;;;;;;7333294;19;109987;-67
2023/08/17 09:08:32;;;;;;;;;;;21.10;99.90;;;;;;7331778;19;110378;-66
2023/08/17 09:10:59;;;;;;;;;;;21.10;99.90;;;;;;7336046;19;108920;-66
2023/08/17 09:13:26;;;;;;;;;;;21.20;99.90;;;;;;7332925;19;110340;-66
2023/08/17 09:15:54;;;;;;;;;;;21.30;99.90;;;;;;7335957;19;109227;-66
2023/08/17 09:18:21;;;;;;;;;;;21.40;99.90;;;;;;7341995;19;108907;-65
2023/08/17 09:20:51;;;;;;;;;;;21.30;99.90;;;;;;7334236;19;109502;-65
2023/08/17 09:23:21;;;;;;;;;;;21.30;99.90;;;;;;7333848;19;108947;-66
2023/08/17 09:25:49;;;;;;;;;;;21.30;99.90;;;;;;7335496;19;110501;-66
2023/08/17 09:28:17;;;;;;;;;;;21.40;99.90;;;;;;7336415;19;109520;-66
2023/08/17 09:30:54;;;;;;;;;;;21.40;99.90;;;;;;7333536;19;110813;-66
2023/08/17 09:33:22;;;;;;;;;;;21.50;99.90;;;;;;7332458;19;110119;-66
2023/08/17 09:35:50;;;;;;;;;;;21.50;99.90;;;;;;7336775;19;108764;-66
2023/08/17 09:38:24;;;;;;;;;;;21.50;99.90;;;;;;7332367;19;108727;-66
2023/08/17 09:40:52;;;;;;;;;;;21.60;99.90;;;;;;7339591;19;109752;-66
2023/08/17 09:43:22;;;;;;;;;;;21.70;99.90;;;;;;7331843;19;109532;-66
2023/08/17 09:45:49;;;;;;;;;;;21.80;99.90;;;;;;7333295;19;109767;-65
2023/08/17 09:48:17;;;;;;;;;;;21.80;99.90;;;;;;7333295;19;109205;-65
2023/08/17 09:50:45;;;;;;;;;;;21.80;99.90;;;;;;7332399;19;108820;-66
2023/08/17 09:53:16;;;;;;;;;;;21.80;99.90;;;;;;7334471;19;110033;-65
2023/08/17 09:55:46;;;;;;;;;;;21.80;99.90;;;;;;7335041;19;109878;-65
2023/08/17 09:58:16;;;;;;;;;;;21.90;99.90;;;;;;7334155;19;108714;-65
2023/08/17 10:00:45;;;;;;;;;;;22.00;99.90;;;;;;7331762;19;110108;-66
2023/08/17 10:03:17;;;;;;;;;;;21.80;99.90;;;;;;7337412;19;108643;-66
2023/08/17 10:05:46;;;;;;;;;;;21.90;99.90;;;;;;7334167;19;110131;-66
2023/08/17 10:08:15;;;;;;;;;;;22.00;99.90;;;;;;7333426;19;109931;-66
2023/08/17 10:10:44;;;;;;;;;;;22.00;99.90;;;;;;7335721;19;108702;-65
2023/08/17 10:13:13;;;;;;;;;;;22.00;99.90;;;;;;7332353;19;110224;-66
2023/08/17 10:15:57;;;;;;;;;;;21.90;99.90;;;;;;7334207;19;108520;-66
2023/08/17 10:18:41;;;;;;;;;;;22.00;99.90;;;;;;7332141;19;108822;-66
2023/08/17 10:21:16;;;;;;;;;;;21.90;99.90;;;;;;7333446;19;109336;-66
2023/08/17 10:23:44;;;;;;;;;;;21.80;99.90;;;;;;7332353;19;109119;-65
2023/08/17 10:26:12;;;;;;;;;;;21.70;99.90;;;;;;7336886;19;109446;-65
2023/08/17 10:28:40;;;;;;;;;;;21.70;99.90;;;;;;7331633;19;110541;-66
2023/08/17 10:31:09;;;;;;;;;;;21.70;99.90;;;;;;7332514;19;109651;-65
2023/08/17 10:33:39;;;;;;;;;;;21.80;99.90;;;;;;7339064;19;109196;-68
2023/08/17 10:36:07;;;;;;;;;;;21.80;99.90;;;;;;7339112;19;111098;-67
2023/08/17 10:38:34;;;;;;;;;;;21.90;99.90;;;;;;7339727;19;109244;-68
2023/08/17 10:41:09;;;;;;;;;;;21.90;99.90;;;;;;7338285;19;110248;-67
2023/08/17 10:43:55;;;;;;;;;;;22.00;99.90;;;;;;7340645;19;109963;-68
2023/08/17 10:46:31;;;;;;;;;;;22.10;99.90;;;;;;7340380;19;108842;-68
2023/08/17 10:49:01;;;;;;;;;;;22.10;99.90;;;;;;7344349;19;110254;-68
2023/08/17 10:51:28;;;;;;;;;;;22.00;99.90;;;;;;7337385;19;110684;-68
2023/08/17 10:53:58;;;;;;;;;;;22.00;99.90;;;;;;7340808;19;110203;-68
2023/08/17 10:56:26;;;;;;;;;;;22.00;99.90;;;;;;7339779;19;108973;-68
2023/08/17 10:58:54;;;;;;;;;;;22.00;99.90;;;;;;7339119;19;108833;-67
2023/08/17 11:01:34;;;;;;;;;;;22.00;99.90;;;;;;7339066;19;109341;-67
2023/08/17 11:04:11;;;;;;;;;;;22.00;99.90;;;;;;7338769;19;108528;-67
2023/08/17 11:06:39;;;;;;;;;;;22.00;99.90;;;;;;7339180;19;112638;-67
2023/08/17 11:09:07;;;;;;;;;;;22.00;99.90;;;;;;7338138;19;109319;-68
2023/08/17 11:11:34;;;;;;;;;;;22.00;99.90;;;;;;7344221;19;108545;-67
2023/08/17 11:14:01;;;;;;;;;;;22.00;99.90;;;;;;7338115;19;110307;-68
2023/08/17 11:16:28;;;;;;;;;;;22.00;99.90;;;;;;7335949;19;108505;-68
2023/08/17 11:18:58;;;;;;;;;;;22.10;99.90;;;;;;7337363;19;109162;-67
2023/08/17 11:21:25;;;;;;;;;;;22.20;99.90;;;;;;7336906;19;114532;-67
2023/08/17 11:23:55;;;;;;;;;;;22.30;99.90;;;;;;7337903;19;108887;-68
2023/08/17 11:26:22;;;;;;;;;;;22.30;99.90;;;;;;7337278;19;108597;-67
2023/08/17 11:28:55;;;;;;;;;;;22.30;99.90;;;;;;7338016;19;108993;-68
2023/08/17 11:31:22;;;;;;;;;;;22.30;99.90;;;;;;7344760;19;108394;-67
2023/08/17 11:33:50;;;;;;;;;;;22.30;99.90;;;;;;7332652;19;109373;-67
2023/08/17 11:36:22;;;;;;;;;;;22.10;99.90;;;;;;7335686;19;108770;-67
2023/08/17 11:38:50;;;;;;;;;;;22.20;99.90;;;;;;7334771;19;108540;-67
2023/08/17 11:41:17;;;;;;;;;;;22.20;99.90;;;;;;7334776;19;109700;-67
2023/08/17 11:43:45;;;;;;;;;;;22.20;99.90;;;;;;7330803;19;110607;-68
2023/08/17 11:46:13;;;;;;;;;;;22.20;99.90;;;;;;7336419;19;108765;-67
2023/08/17 11:48:40;;;;;;;;;;;22.20;99.90;;;;;;7335018;19;109136;-67
2023/08/17 11:51:08;;;;;;;;;;;22.10;99.90;;;;;;7337341;19;108920;-67
2023/08/17 11:53:36;;;;;;;;;;;22.20;99.90;;;;;;7340361;19;109578;-68
2023/08/17 11:56:03;;;;;;;;;;;22.20;99.90;;;;;;7338944;19;108911;-68
2023/08/17 11:58:47;;;;;;;;;;;22.10;99.90;;;;;;7333576;19;109413;-68
2023/08/17 12:01:18;;;;;;;;;;;22.20;99.90;;;;;;7338353;19;110101;-67
2023/08/17 12:03:45;;;;;;;;;;;22.30;99.90;;;;;;7337800;19;108448;-70
2023/08/17 12:06:13;;;;;;;;;;;22.30;99.90;;;;;;7337316;19;109300;-67
2023/08/17 12:08:44;;;;;;;;;;;22.30;99.90;;;;;;7337397;19;109617;-67
2023/08/17 12:11:15;;;;;;;;;;;22.30;99.90;;;;;;7336389;19;108746;-68
2023/08/17 12:13:42;;;;;;;;;;;22.30;99.90;;;;;;7338921;19;108647;-68
2023/08/17 12:16:14;;;;;;;;;;;22.40;99.90;;;;;;7340048;19;109365;-68
2023/08/17 12:18:43;;;;;;;;;;;22.60;99.90;;;;;;7337931;19;108525;-67
2023/08/17 12:21:11;;;;;;;;;;;22.60;99.90;;;;;;7336446;19;109517;-68
2023/08/17 12:23:38;;;;;;;;;;;22.70;99.90;;;;;;7337166;19;108843;-67
2023/08/17 12:26:05;;;;;;;;;;;22.90;99.90;;;;;;7336580;19;110425;-67
2023/08/17 12:28:33;;;;;;;;;;;22.80;99.90;;;;;;7336549;19;111607;-67
2023/08/17 12:31:01;;;;;;;;;;;22.90;99.90;;;;;;7338181;19;109084;-67
2023/08/17 12:33:29;;;;;;;;;;;22.90;99.90;;;;;;7335916;19;109658;-67
2023/08/17 12:35:56;;;;;;;;;;;23.00;99.90;;;;;;7335849;19;109458;-67
2023/08/17 12:38:24;;;;;;;;;;;23.00;99.90;;;;;;7340976;19;109559;-67
2023/08/17 12:40:51;;;;;;;;;;;23.00;99.90;;;;;;7335467;19;109529;-67
2023/08/17 12:43:18;;;;;;;;;;;23.00;99.90;;;;;;7336975;19;109673;-68
2023/08/17 12:45:46;;;;;;;;;;;23.00;99.90;;;;;;7335869;19;108595;-67
2023/08/17 12:48:13;;;;;;;;;;;23.00;99.90;;;;;;7336011;19;110043;-67
2023/08/17 12:50:40;;;;;;;;;;;23.00;99.90;;;;;;7335334;19;109277;-68
2023/08/17 12:53:10;;;;;;;;;;;23.00;99.90;;;;;;7334471;19;108854;-67
2023/08/17 12:55:37;;;;;;;;;;;23.20;99.90;;;;;;7332794;19;109295;-68
2023/08/17 12:58:07;;;;;;;;;;;23.20;99.90;;;;;;7336063;19;108610;-68
2023/08/17 13:00:34;;;;;;;;;;;23.30;99.90;;;;;;7340138;19;108831;-67
2023/08/17 13:03:01;;;;;;;;;;;23.40;99.90;;;;;;7335613;19;108599;-67
2023/08/17 13:05:28;;;;;;;;;;;23.40;99.90;;;;;;7332454;19;110557;-67
2023/08/17 13:07:56;;;;;;;;;;;23.20;99.90;;;;;;7332982;19;109134;-68
2023/08/17 13:10:23;;;;;;;;;;;23.20;99.90;;;;;;7334782;19;109903;-68
2023/08/17 13:12:54;;;;;;;;;;;23.00;99.90;;;;;;7336363;19;110572;-67
2023/08/17 13:15:22;;;;;;;;;;;23.00;99.90;;;;;;7333510;19;109806;-68
2023/08/17 13:17:49;;;;;;;;;;;23.00;99.90;;;;;;7335783;19;108398;-67
2023/08/17 13:20:16;;;;;;;;;;;23.10;99.90;;;;;;7340136;19;108726;-68
2023/08/17 13:22:44;;;;;;;;;;;23.10;99.90;;;;;;7335758;19;108947;-67
2023/08/17 13:25:11;;;;;;;;;;;23.10;99.90;;;;;;7334835;19;110065;-67
2023/08/17 13:27:38;;;;;;;;;;;23.10;99.90;;;;;;7334146;19;109718;-68
2023/08/17 13:30:05;;;;;;;;;;;23.10;99.90;;;;;;7334840;19;108900;-67
2023/08/17 13:32:32;;;;;;;;;;;23.20;99.90;;;;;;7335057;19;109337;-67
2023/08/17 13:35:01;;;;;;;;;;;23.30;99.90;;;;;;7332745;19;109119;-67
2023/08/17 13:37:31;;;;;;;;;;;23.30;99.90;;;;;;7329180;19;109837;-67
2023/08/17 13:40:00;;;;;;;;;;;23.20;99.90;;;;;;7335373;19;112940;-67
2023/08/17 13:42:27;;;;;;;;;;;23.40;99.90;;;;;;7339891;19;109961;-79
2023/08/17 13:44:55;;;;;;;;;;;23.50;99.90;;;;;;7337282;19;110042;-80
2023/08/17 13:47:22;;;;;;;;;;;23.70;99.90;;;;;;7333611;19;109181;-81
2023/08/17 13:49:49;;;;;;;;;;;23.70;99.90;;;;;;7336865;19;108774;-84
2023/08/17 13:52:16;;;;;;;;;;;23.70;99.90;;;;;;7335942;19;109168;-80
2023/08/17 13:54:45;;;;;;;;;;;23.70;99.90;;;;;;7335743;19;109538;-79
2023/08/17 13:57:12;;;;;;;;;;;23.70;99.90;;;;;;7336561;19;109707;-80
2023/08/17 13:59:39;;;;;;;;;;;23.60;99.90;;;;;;7335999;19;108836;-80
2023/08/17 14:02:07;;;;;;;;;;;23.50;99.90;;;;;;7334443;19;109412;-80
2023/08/17 14:04:35;;;;;;;;;;;23.40;99.90;;;;;;7339241;19;108589;-80
2023/08/17 14:07:03;;;;;;;;;;;23.40;99.90;;;;;;7337522;19;110545;-80
2023/08/17 14:09:30;;;;;;;;;;;23.40;99.90;;;;;;7338792;19;108622;-80